Time;durP1;ratioP1;P1;durP2;ratioP2;P2;SDS_P1;SDS_P2;PMS_P1;PMS_P2;Temp;Humidity;BMP_temperature;BMP_pressure;BME280_temperature;BME280_humidity;BME280_pressure;Samples;Min_cycle;Max_cycle;Signal;HPM_P1;HPM_P2
2024/04/07 00:02:46;;;;;;;19.4;11.1;;;;;;;10.67;85.59;99050;;;;
2024/04/07 00:12:45;;;;;;;16.3;10.1;;;;;;;10.54;85.39;99053.333333333;;;;
2024/04/07 00:23:45;;;;;;;16.3;10.1;;;;;;;10.36;85.94;99048.333333333;;;;
2024/04/07 00:33:46;;;;;;;16.3;10.1;;;;;;;10.28;86.51;99048.333333333;;;;
2024/04/07 00:43:46;;;;;;;16.7;10.5;;;;;;;10.25;86.84;99048.333333333;;;;
2024/04/07 00:54:45;;;;;;;16.7;10.5;;;;;;;10.23;86.8;99063.333333333;;;;
2024/04/07 01:04:45;;;;;;;17.7;10;;;;;;;10.13;88.35;99061.666666667;;;;
2024/04/07 01:15:45;;;;;;;17.7;10;;;;;;;10.09;87.29;99056.666666667;;;;
2024/04/07 01:26:45;;;;;;;17.7;10;;;;;;;10;87.38;99060;;;;
2024/04/07 01:36:47;;;;;;;13.9;9;;;;;;;9.92;87.5;99060;;;;
2024/04/07 01:46:45;;;;;;;13.9;9;;;;;;;9.83;87.13;99063.333333333;;;;
2024/04/07 01:56:46;;;;;;;13.9;9;;;;;;;9.73;87.39;99061.666666667;;;;
2024/04/07 02:07:46;;;;;;;14.1;9.9;;;;;;;9.61;87.43;99051.666666667;;;;
2024/04/07 02:17:46;;;;;;;14.1;9.9;;;;;;;9.5;87.6;99058.333333333;;;;
2024/04/07 02:28:45;;;;;;;14.1;9.9;;;;;;;9.33;87.56;99060;;;;
2024/04/07 02:38:47;;;;;;;15.6;8.1;;;;;;;9.28;89.93;99050;;;;
2024/04/07 02:48:46;;;;;;;15.6;8.1;;;;;;;9.36;89.59;99051.666666667;;;;
2024/04/07 02:58:46;;;;;;;15.6;8.1;;;;;;;9.34;89.75;99071.666666667;;;;
2024/04/07 03:09:46;;;;;;;17.7;9.8;;;;;;;9.3;89.36;99070;;;;
2024/04/07 03:20:46;;;;;;;17.7;9.8;;;;;;;9.33;89.19;99070;;;;
2024/04/07 03:30:46;;;;;;;17.7;9.8;;;;;;;9.29;89.2;99066.666666667;;;;
2024/04/07 03:40:46;;;;;;;17.9;11.3;;;;;;;9.13;89.14;99080;;;;
2024/04/07 03:51:46;;;;;;;17.9;11.3;;;;;;;9.03;88.96;99075;;;;
2024/04/07 04:01:47;;;;;;;17.9;11.3;;;;;;;9.13;89.54;99076.666666667;;;;
2024/04/07 04:11:46;;;;;;;15;8.8;;;;;;;9.15;89.47;99071.666666667;;;;
2024/04/07 04:22:46;;;;;;;15;8.8;;;;;;;9.23;89.94;99088.333333333;;;;
2024/04/07 04:32:46;;;;;;;15;8.8;;;;;;;9.25;89.69;99085;;;;
2024/04/07 04:43:46;;;;;;;15.6;9.6;;;;;;;9.66;90.59;99085;;;;
2024/04/07 04:54:46;;;;;;;15.6;9.6;;;;;;;10.16;90.76;99090;;;;
2024/04/07 05:05:46;;;;;;;19.1;8.7;;;;;;;10.52;90.56;99085;;;;
2024/04/07 05:15:46;;;;;;;19.1;8.7;;;;;;;11.05;89.5;99070;;;;
2024/04/07 05:26:46;;;;;;;19.1;8.7;;;;;;;11.29;87.97;99078.333333333;;;;
2024/04/07 05:36:46;;;;;;;13.9;9.5;;;;;;;11.36;86.96;99086.666666667;;;;
2024/04/07 05:47:46;;;;;;;13.9;9.5;;;;;;;11.73;86.15;99080;;;;
2024/04/07 05:57:46;;;;;;;13.9;9.5;;;;;;;12.08;84.8;99088.333333333;;;;
2024/04/07 06:08:46;;;;;;;17.9;11;;;;;;;12.32;84.14;99118.333333333;;;;
2024/04/07 06:19:46;;;;;;;17.9;11;;;;;;;12.94;83.18;99113.333333333;;;;
2024/04/07 06:30:46;;;;;;;17.9;11;;;;;;;13.26;82.55;99115;;;;
2024/04/07 06:41:46;;;;;;;13.1;8.7;;;;;;;13.73;81.89;99115;;;;
2024/04/07 06:52:46;;;;;;;13.1;8.7;;;;;;;14.44;81.88;99111.666666667;;;;
2024/04/07 07:02:46;;;;;;;13.1;8.7;;;;;;;15.19;81.25;99111.666666667;;;;
2024/04/07 07:13:46;;;;;;;13.1;9.8;;;;;;;16.16;79.91;99106.666666667;;;;
2024/04/07 07:24:46;;;;;;;13.1;9.8;;;;;;;17.03;78.22;99118.333333333;;;;
2024/04/07 07:35:47;;;;;;;11.1;6.6;;;;;;;18.1;72.34;99115;;;;
2024/04/07 07:45:46;;;;;;;11.1;6.6;;;;;;;18.89;67.51;99123.333333333;;;;
2024/04/07 07:56:46;;;;;;;11.1;6.6;;;;;;;19.34;65.91;99121.666666667;;;;
2024/04/07 08:06:46;;;;;;;5.4;3.4;;;;;;;19.76;66.3;99126.666666667;;;;
2024/04/07 08:16:46;;;;;;;5.4;3.4;;;;;;;20.39;64.15;99126.666666667;;;;
2024/04/07 08:26:46;;;;;;;5.4;3.4;;;;;;;20.8;61.56;99128.333333333;;;;
2024/04/07 08:37:46;;;;;;;6.5;3.2;;;;;;;21.01;62.28;99121.666666667;;;;
2024/04/07 08:48:50;;;;;;;6.5;3.2;;;;;;;21.29;59.74;99116.666666667;;;;
2024/04/07 08:59:46;;;;;;;6.5;3.2;;;;;;;21.8;59.66;99110;;;;
2024/04/07 09:10:46;;;;;;;4.8;3;;;;;;;22.61;57.97;99103.333333333;;;;
2024/04/07 09:20:46;;;;;;;4.8;3;;;;;;;22.97;55.69;99096.666666667;;;;
2024/04/07 09:30:46;;;;;;;4.8;3;;;;;;;23.06;55.56;99086.666666667;;;;
2024/04/07 09:40:46;;;;;;;4.8;1.6;;;;;;;23.49;53.79;99078.333333333;;;;
2024/04/07 09:50:46;;;;;;;4.8;1.6;;;;;;;23.55;52.73;99073.333333333;;;;
2024/04/07 10:01:46;;;;;;;4.8;1.6;;;;;;;24.45;50.65;99056.666666667;;;;
2024/04/07 10:11:46;;;;;;;4;1.9;;;;;;;24.65;51;99038.333333333;;;;
2024/04/07 10:21:46;;;;;;;4;1.9;;;;;;;24.84;45.77;99036.666666667;;;;
2024/04/07 10:31:46;;;;;;;4;1.9;;;;;;;25.43;44.76;99030;;;;
2024/04/07 10:41:46;;;;;;;2.8;1.3;;;;;;;26.02;45.88;99021.666666667;;;;
2024/04/07 10:51:46;;;;;;;2.8;1.3;;;;;;;25.77;43.73;99010;;;;
2024/04/07 11:02:46;;;;;;;2.8;1.3;;;;;;;25.86;44.5;99006.666666667;;;;
2024/04/07 11:12:46;;;;;;;3.4;1.4;;;;;;;25.83;42.36;98995;;;;
2024/04/07 11:22:46;;;;;;;3.4;1.4;;;;;;;26.21;42.62;98990;;;;
2024/04/07 11:33:46;;;;;;;3.4;1.4;;;;;;;26.77;42.74;98991.666666667;;;;
2024/04/07 11:43:46;;;;;;;2.6;1.2;;;;;;;27.15;43.27;98996.666666667;;;;
2024/04/07 11:54:46;;;;;;;2.6;1.2;;;;;;;27.06;42.15;98985;;;;
2024/04/07 12:04:46;;;;;;;3.4;1.1;;;;;;;26.95;44.44;98976;;;;
2024/04/07 12:14:46;;;;;;;3.4;1.1;;;;;;;27.2;39.69;98968;;;;
2024/04/07 12:24:47;;;;;;;3.4;1.1;;;;;;;27.55;42.85;98963.333333333;;;;
2024/04/07 12:35:46;;;;;;;3.1;1;;;;;;;27.61;41.51;98953.333333333;;;;
2024/04/07 12:46:46;;;;;;;3.1;1;;;;;;;27.23;43.69;98933.333333333;;;;
2024/04/07 12:56:46;;;;;;;3.1;1;;;;;;;27.23;42.9;98942;;;;
2024/04/07 13:06:46;;;;;;;2.7;1.3;;;;;;;27.38;44.11;98936;;;;
2024/04/07 13:17:46;;;;;;;2.7;1.3;;;;;;;27.61;43.08;98906.666666667;;;;
2024/04/07 13:28:46;;;;;;;2.7;1.3;;;;;;;27.11;44.17;98904;;;;
2024/04/07 13:39:46;;;;;;;2.5;1.1;;;;;;;26.74;45.44;98901.666666667;;;;
2024/04/07 13:49:46;;;;;;;2.5;1.1;;;;;;;27.05;45.71;98893.333333333;;;;
2024/04/07 14:00:47;;;;;;;2.5;1.1;;;;;;;27.55;45.37;98881.666666667;;;;
2024/04/07 14:10:48;;;;;;;3.7;1.3;;;;;;;27.49;45.15;98901.666666667;;;;
2024/04/07 14:20:46;;;;;;;3.7;1.3;;;;;;;27.92;43.94;98895;;;;
2024/04/07 14:31:46;;;;;;;3.7;1.3;;;;;;;27.3;44.21;98888.333333333;;;;
2024/04/07 14:42:46;;;;;;;3.3;1.4;;;;;;;28.06;42.62;98885;;;;
2024/04/07 14:53:46;;;;;;;3.3;1.4;;;;;;;27.96;44.12;98876.666666667;;;;
2024/04/07 15:03:46;;;;;;;3.3;1.4;;;;;;;28.19;42.98;98875;;;;
2024/04/07 15:13:46;;;;;;;2.8;1.3;;;;;;;29.91;41.12;98875;;;;
2024/04/07 15:23:46;;;;;;;2.8;1.3;;;;;;;31.18;37.83;98876.666666667;;;;
2024/04/07 15:34:46;;;;;;;3.5;1.3;;;;;;;32.04;36.41;98880;;;;
2024/04/07 15:44:46;;;;;;;3.5;1.3;;;;;;;32.26;35.64;98885;;;;
2024/04/07 15:55:46;;;;;;;3.5;1.3;;;;;;;32.83;34.83;98876.666666667;;;;
2024/04/07 16:06:46;;;;;;;3.3;1.4;;;;;;;32.74;34.71;98873.333333333;;;;
2024/04/07 16:16:46;;;;;;;3.3;1.4;;;;;;;32.4;34.89;98878.333333333;;;;
2024/04/07 16:26:46;;;;;;;3.3;1.4;;;;;;;30.77;37.26;98878.333333333;;;;
2024/04/07 16:37:46;;;;;;;4.7;2;;;;;;;28.08;41.95;98880;;;;
2024/04/07 16:47:46;;;;;;;4.7;2;;;;;;;26.96;43.96;98878.333333333;;;;
2024/04/07 16:57:46;;;;;;;4.7;2;;;;;;;25.73;47.37;98876.666666667;;;;
2024/04/07 17:07:50;;;;;;;3;1.5;;;;;;;24.75;48.39;98876.666666667;;;;
2024/04/07 17:18:46;;;;;;;3;1.5;;;;;;;23.57;51.42;98885;;;;
2024/04/07 17:29:47;;;;;;;3;1.5;;;;;;;22.61;53.55;98885;;;;
2024/04/07 17:39:46;;;;;;;3.6;1.6;;;;;;;21.78;55.82;98885;;;;
2024/04/07 17:49:47;;;;;;;3.6;1.6;;;;;;;21.19;57.65;98893.333333333;;;;
2024/04/07 17:59:46;;;;;;;3.6;1.6;;;;;;;20.61;58.94;98896.666666667;;;;
2024/04/07 18:10:46;;;;;;;6.7;2.4;;;;;;;20.05;60.33;98898.333333333;;;;
2024/04/07 18:20:46;;;;;;;6.7;2.4;;;;;;;19.73;62.72;98898.333333333;;;;
2024/04/07 18:31:46;;;;;;;;;;;;;;;19.39;61.71;98896.666666667;;;;
2024/04/07 18:42:46;;;;;;;4.6;2.4;;;;;;;18.94;64.11;98903.333333333;;;;
2024/04/07 18:53:48;;;;;;;4.6;2.4;;;;;;;18.44;64.92;98910;;;;
2024/04/07 19:04:47;;;;;;;4.6;2.4;;;;;;;17.92;66.17;98901.666666667;;;;
2024/04/07 19:14:46;;;;;;;6.5;3.9;;;;;;;17.53;68.25;98903.333333333;;;;
2024/04/07 19:25:46;;;;;;;6.5;3.9;;;;;;;17.24;70.03;98901.666666667;;;;
2024/04/07 19:36:46;;;;;;;6.9;4;;;;;;;17.03;70.94;98901.666666667;;;;
2024/04/07 19:46:46;;;;;;;6.9;4;;;;;;;16.87;72.69;98910;;;;
2024/04/07 19:57:46;;;;;;;6.9;4;;;;;;;16.68;71.64;98908.333333333;;;;
2024/04/07 20:07:46;;;;;;;6.8;4.4;;;;;;;16.42;73.52;98906.666666667;;;;
2024/04/07 20:17:46;;;;;;;6.8;4.4;;;;;;;16.21;73.15;98911.666666667;;;;
2024/04/07 20:27:46;;;;;;;6.8;4.4;;;;;;;16.4;74.29;98910;;;;
2024/04/07 20:37:47;;;;;;;7.4;4.2;;;;;;;16.9;74.52;98908.333333333;;;;
2024/04/07 20:48:46;;;;;;;7.4;4.2;;;;;;;17.27;72.46;98908.333333333;;;;
2024/04/07 20:58:46;;;;;;;7.4;4.2;;;;;;;17.18;72.07;98915;;;;
2024/04/07 21:08:46;;;;;;;8.5;4.9;;;;;;;16.85;72.29;98918.333333333;;;;
2024/04/07 21:18:46;;;;;;;8.5;4.9;;;;;;;16.57;73.97;98926.666666667;;;;
2024/04/07 21:29:46;;;;;;;10.7;4.7;;;;;;;16.91;72.22;98925;;;;
2024/04/07 21:39:46;;;;;;;10.7;4.7;;;;;;;17.25;69.74;98930;;;;
2024/04/07 21:50:47;;;;;;;;;;;;;;;17.2;69.01;98928.333333333;;;;
2024/04/07 22:00:47;;;;;;;6;2.6;;;;;;;16.85;69.54;98928.333333333;;;;
2024/04/07 22:10:46;;;;;;;6;2.6;;;;;;;16.44;70.53;98931.666666667;;;;
2024/04/07 22:21:46;;;;;;;6;2.6;;;;;;;15.92;72.03;98925;;;;
2024/04/07 22:32:47;;;;;;;7.8;4.9;;;;;;;15.6;73.43;98928.333333333;;;;
2024/04/07 22:42:46;;;;;;;7.8;4.9;;;;;;;15.37;73.55;98923.333333333;;;;
2024/04/07 22:52:46;;;;;;;7.8;4.9;;;;;;;15.26;73.86;98923.333333333;;;;
2024/04/07 23:02:47;;;;;;;6.4;3.8;;;;;;;15.27;75.75;98926.666666667;;;;
2024/04/07 23:13:47;;;;;;;6.4;3.8;;;;;;;15.35;75.65;98913.333333333;;;;
2024/04/07 23:23:46;;;;;;;6.4;3.8;;;;;;;15.38;74.69;98905;;;;
2024/04/07 23:33:46;;;;;;;6.2;3.4;;;;;;;15.3;74.65;98891.666666667;;;;
2024/04/07 23:44:46;;;;;;;6.2;3.4;;;;;;;15.07;75.04;98886.666666667;;;;
2024/04/07 23:54:46;;;;;;;6.2;3.4;;;;;;;14.82;76.89;98888.333333333;;;;
